createdAt,value
2023-01-21T00:01:12.432Z,8.57
2023-01-21T00:03:40.484Z,8.98
2023-01-21T00:06:09.359Z,8.93
2023-01-21T00:08:37.105Z,8.20
2023-01-21T00:11:09.796Z,8.32
2023-01-21T00:13:37.561Z,8.27
2023-01-21T00:16:06.141Z,9.13
2023-01-21T00:18:35.069Z,7.80
2023-01-21T00:21:03.241Z,8.43
2023-01-21T00:23:30.955Z,8.32
2023-01-21T00:26:03.710Z,9.35
2023-01-21T00:28:33.105Z,8.77
2023-01-21T00:31:02.977Z,8.63
2023-01-21T00:33:31.784Z,7.60
2023-01-21T00:36:11.027Z,8.25
2023-01-21T00:38:39.145Z,8.40
2023-01-21T00:41:09.997Z,8.50
2023-01-21T00:43:38.108Z,8.95
2023-01-21T00:46:06.294Z,8.27
2023-01-21T00:48:34.438Z,8.38
2023-01-21T00:51:02.192Z,8.27
2023-01-21T00:53:31.924Z,8.20
2023-01-21T00:56:07.368Z,8.07
2023-01-21T00:58:35.584Z,7.70
2023-01-21T01:01:05.957Z,8.32
2023-01-21T01:03:34.535Z,7.78
2023-01-21T01:06:04.238Z,7.62
2023-01-21T01:08:32.087Z,7.82
2023-01-21T01:10:59.962Z,7.40
2023-01-21T01:13:28.914Z,6.43
2023-01-21T01:15:58.685Z,9.45
2023-01-21T01:18:28.045Z,8.20
2023-01-21T01:20:55.944Z,8.50
2023-01-21T01:23:23.672Z,8.63
2023-01-21T01:25:59.845Z,9.23
2023-01-21T01:28:28.280Z,9.70
2023-01-21T01:30:56.086Z,8.93
2023-01-21T01:33:24.097Z,9.32
2023-01-21T01:35:51.946Z,7.80
2023-01-21T01:38:22.321Z,9.50
2023-01-21T01:40:52.125Z,8.82
2023-01-21T01:43:25.446Z,10.43
2023-01-21T01:45:54.074Z,10.90
2023-01-21T01:48:30.992Z,8.77
2023-01-21T01:51:02.388Z,10.98
2023-01-21T01:53:33.117Z,9.95
2023-01-21T01:56:01.493Z,9.77
2023-01-21T01:58:31.539Z,9.20
2023-01-21T02:01:00.589Z,9.48
2023-01-21T02:03:46.490Z,8.30
2023-01-21T02:06:16.262Z,10.82
2023-01-21T02:08:46.698Z,10.73
2023-01-21T02:11:17.235Z,11.18
2023-01-21T02:13:49.751Z,11.80
2023-01-21T02:16:39.259Z,11.60
2023-01-21T02:19:41.985Z,11.43
2023-01-21T02:22:28.529Z,12.63
2023-01-21T02:25:20.509Z,10.85
2023-01-21T02:28:14.045Z,8.48
2023-01-21T02:30:54.538Z,9.55
2023-01-21T02:33:42.494Z,10.13
2023-01-21T02:36:27.942Z,10.65
2023-01-21T02:39:21.011Z,10.10
2023-01-21T02:42:07.624Z,11.07
2023-01-21T02:44:35.146Z,11.18
2023-01-21T02:47:34.495Z,10.50
2023-01-21T02:50:28.802Z,10.88
2023-01-21T02:53:02.001Z,9.88
2023-01-21T02:55:34.482Z,10.82
2023-01-21T02:58:06.564Z,11.00
2023-01-21T03:00:52.848Z,10.85
2023-01-21T03:03:34.344Z,11.10
2023-01-21T03:06:08.101Z,11.20
2023-01-21T03:09:05.214Z,10.35
2023-01-21T03:11:33.574Z,11.10
2023-01-21T03:14:58.436Z,10.48
2023-01-21T03:17:36.345Z,11.15
2023-01-21T03:20:13.904Z,10.02
2023-01-21T03:22:43.002Z,11.45
2023-01-21T03:25:14.062Z,12.07
2023-01-21T03:27:45.937Z,12.90
2023-01-21T03:30:17.317Z,12.23
2023-01-21T03:32:49.681Z,11.70
2023-01-21T03:35:25.110Z,11.07
2023-01-21T03:38:14.438Z,11.12
2023-01-21T03:40:51.473Z,11.80
2023-01-21T03:43:19.232Z,13.45
2023-01-21T03:46:05.490Z,12.68
2023-01-21T03:48:48.398Z,11.30
2023-01-21T03:51:24.612Z,10.32
2023-01-21T03:53:59.961Z,9.60
2023-01-21T03:56:28.209Z,12.90
2023-01-21T03:58:56.188Z,10.23
2023-01-21T04:01:24.100Z,10.23
2023-01-21T04:03:51.755Z,11.90
2023-01-21T04:06:22.213Z,11.60
2023-01-21T04:08:50.086Z,10.55
2023-01-21T04:11:18.331Z,12.50
2023-01-21T04:13:46.114Z,11.60
2023-01-21T04:16:13.874Z,12.23
2023-01-21T04:18:41.500Z,11.45
2023-01-21T04:21:09.428Z,14.50
2023-01-21T04:23:37.084Z,13.13
2023-01-21T04:26:04.851Z,14.20
2023-01-21T04:28:32.570Z,14.27
2023-01-21T04:31:00.628Z,13.32
2023-01-21T04:33:28.265Z,13.30
2023-01-21T04:36:02.389Z,13.73
2023-01-21T04:38:30.117Z,11.50
2023-01-21T04:40:57.962Z,13.57
2023-01-21T04:43:25.669Z,12.75
2023-01-21T04:45:53.582Z,11.05
2023-01-21T04:48:21.367Z,11.88
2023-01-21T04:50:49.164Z,13.50
2023-01-21T04:53:16.903Z,13.25
2023-01-21T04:55:44.707Z,11.82
2023-01-21T04:58:12.387Z,14.32
2023-01-21T05:00:40.056Z,14.82
2023-01-21T05:03:07.697Z,16.20
2023-01-21T05:05:35.377Z,16.98
2023-01-21T05:08:03.060Z,15.95
2023-01-21T05:10:30.773Z,16.60
2023-01-21T05:12:59.543Z,16.33
2023-01-21T05:15:27.253Z,15.30
2023-01-21T05:17:55.027Z,11.55
2023-01-21T05:20:22.764Z,13.02
2023-01-21T05:22:50.646Z,14.00
2023-01-21T05:25:18.398Z,15.23
2023-01-21T05:27:52.219Z,12.95
2023-01-21T05:30:20.168Z,15.10
2023-01-21T05:32:55.000Z,16.48
2023-01-21T05:35:24.221Z,16.87
2023-01-21T05:37:52.081Z,15.20
2023-01-21T05:40:20.207Z,13.73
2023-01-21T05:42:48.280Z,15.60
2023-01-21T05:45:16.178Z,12.57
2023-01-21T05:47:44.153Z,13.45
2023-01-21T05:50:12.591Z,13.55
2023-01-21T05:52:41.094Z,13.43
2023-01-21T05:55:09.332Z,14.70
2023-01-21T05:57:37.104Z,12.77
2023-01-21T06:00:05.867Z,12.70
2023-01-21T06:02:33.638Z,15.15
2023-01-21T06:05:01.489Z,15.40
2023-01-21T06:07:29.177Z,13.07
2023-01-21T06:09:56.889Z,15.70
2023-01-21T06:12:24.939Z,14.65
2023-01-21T06:14:52.724Z,13.10
2023-01-21T06:17:20.407Z,15.30
2023-01-21T06:19:48.185Z,12.65
2023-01-21T06:22:17.520Z,13.15
2023-01-21T06:24:46.230Z,12.77
2023-01-21T06:27:13.935Z,13.48
2023-01-21T06:29:41.718Z,14.82
2023-01-21T06:32:09.453Z,12.50
2023-01-21T06:34:37.176Z,15.63
2023-01-21T06:37:05.120Z,14.23
2023-01-21T06:39:32.816Z,14.07
2023-01-21T06:42:00.706Z,12.93
2023-01-21T06:44:28.409Z,14.02
2023-01-21T06:47:03.327Z,14.60
2023-01-21T06:49:31.100Z,14.43
2023-01-21T06:51:59.858Z,14.80
2023-01-21T06:54:30.294Z,15.10
2023-01-21T06:56:58.495Z,12.10
2023-01-21T06:59:26.366Z,15.75
2023-01-21T07:01:54.623Z,15.63
2023-01-21T07:04:22.555Z,12.60
2023-01-21T07:06:50.926Z,12.88
2023-01-21T07:09:18.767Z,11.07
2023-01-21T07:11:46.686Z,11.12
2023-01-21T07:14:14.421Z,12.20
2023-01-21T07:16:42.290Z,12.23
2023-01-21T07:19:10.008Z,14.70
2023-01-21T07:21:37.677Z,11.35
2023-01-21T07:24:05.530Z,15.15
2023-01-21T07:26:37.204Z,13.05
2023-01-21T07:29:07.507Z,12.30
2023-01-21T07:31:35.976Z,12.43
2023-01-21T07:34:04.719Z,11.77
2023-01-21T07:36:32.669Z,12.00
2023-01-21T07:39:00.609Z,14.18
2023-01-21T07:41:28.505Z,13.90
2023-01-21T07:43:56.213Z,15.38
2023-01-21T07:46:24.726Z,14.10
2023-01-21T07:48:52.962Z,13.77
2023-01-21T07:51:21.366Z,15.65
2023-01-21T07:53:49.211Z,13.10
2023-01-21T07:56:19.106Z,13.32
2023-01-21T07:58:48.197Z,14.73
2023-01-21T08:01:16.020Z,13.15
2023-01-21T08:03:43.818Z,14.80
2023-01-21T08:06:11.548Z,15.65
2023-01-21T08:08:39.264Z,14.00
2023-01-21T08:11:07.114Z,17.10
2023-01-21T08:13:34.880Z,12.00
2023-01-21T08:16:02.575Z,13.43
2023-01-21T08:18:30.449Z,12.40
2023-01-21T08:21:02.357Z,12.65
2023-01-21T08:23:30.495Z,12.57
2023-01-21T08:25:58.261Z,11.60
2023-01-21T08:28:26.021Z,12.02
2023-01-21T08:30:53.827Z,10.93
2023-01-21T08:33:21.647Z,12.90
2023-01-21T08:35:49.354Z,11.43
2023-01-21T08:38:17.085Z,11.98
2023-01-21T08:40:44.855Z,10.05
2023-01-21T08:43:12.606Z,11.82
2023-01-21T08:45:40.353Z,10.23
2023-01-21T08:48:08.965Z,11.05
2023-01-21T08:50:36.658Z,11.85
2023-01-21T08:53:04.441Z,10.48
2023-01-21T08:55:32.280Z,9.48
2023-01-21T08:58:00.647Z,11.65
2023-01-21T09:00:28.571Z,9.13
2023-01-21T09:02:57.009Z,9.68
2023-01-21T09:05:24.649Z,11.12
2023-01-21T09:07:52.499Z,9.40
2023-01-21T09:10:39.329Z,11.20
2023-01-21T09:13:08.638Z,11.80
2023-01-21T09:15:43.811Z,9.95
2023-01-21T09:18:11.527Z,10.20
2023-01-21T09:20:40.811Z,11.98
2023-01-21T09:23:27.859Z,9.40
2023-01-21T09:26:05.026Z,10.85
2023-01-21T09:28:35.146Z,10.30
2023-01-21T09:31:14.997Z,11.75
2023-01-21T09:33:46.110Z,10.25
2023-01-21T09:36:20.320Z,9.68
2023-01-21T09:38:49.356Z,10.00
2023-01-21T09:41:37.961Z,11.25
2023-01-21T09:44:27.184Z,9.82
2023-01-21T09:47:27.301Z,8.65
2023-01-21T09:50:06.856Z,8.88
2023-01-21T09:52:40.644Z,10.00
2023-01-21T09:55:33.111Z,10.30
2023-01-21T09:58:19.320Z,10.50
2023-01-21T10:00:53.778Z,8.90
2023-01-21T10:03:45.479Z,7.68
2023-01-21T10:06:32.649Z,7.28
2023-01-21T10:09:27.571Z,7.62
2023-01-21T10:12:05.200Z,6.25
2023-01-21T10:15:14.188Z,6.68
2023-01-21T10:18:05.296Z,7.22
2023-01-21T10:20:57.565Z,6.20
2023-01-21T10:23:36.594Z,6.25
2023-01-21T10:26:10.204Z,5.72
2023-01-21T10:28:42.917Z,5.85
2023-01-21T10:31:33.870Z,6.80
2023-01-21T10:34:01.678Z,6.95
2023-01-21T10:37:00.064Z,6.72
2023-01-21T10:39:35.404Z,6.57
2023-01-21T10:42:05.761Z,7.07
2023-01-21T10:44:59.928Z,6.72
2023-01-21T10:47:30.365Z,6.55
2023-01-21T10:50:22.170Z,6.95
2023-01-21T10:53:11.674Z,7.30
2023-01-21T10:55:51.077Z,7.82
2023-01-21T10:58:26.571Z,7.12
2023-01-21T11:00:57.632Z,6.97
2023-01-21T11:03:39.939Z,6.95
2023-01-21T11:06:10.392Z,7.93
2023-01-21T11:08:39.576Z,7.57
2023-01-21T11:11:09.695Z,7.70
2023-01-21T11:13:37.489Z,7.70
2023-01-21T11:16:06.053Z,7.82
2023-01-21T11:18:41.630Z,6.85
2023-01-21T11:21:26.854Z,7.50
2023-01-21T11:24:03.292Z,7.30
2023-01-21T11:26:33.903Z,6.93
2023-01-21T11:29:10.624Z,7.10
2023-01-21T11:31:39.089Z,7.75
2023-01-21T11:34:21.635Z,7.03
2023-01-21T11:36:56.907Z,8.18
2023-01-21T11:39:30.156Z,8.40
2023-01-21T11:42:05.279Z,8.77
2023-01-21T11:44:34.576Z,8.80
2023-01-21T11:47:02.549Z,8.98
2023-01-21T11:49:34.199Z,10.38
2023-01-21T11:52:28.362Z,7.72
2023-01-21T11:54:56.023Z,8.68
2023-01-21T11:57:42.163Z,8.50
2023-01-21T12:00:23.708Z,9.20
2023-01-21T12:02:57.688Z,10.32
2023-01-21T12:05:34.538Z,9.98
2023-01-21T12:08:06.135Z,9.82
2023-01-21T12:10:46.547Z,9.63
2023-01-21T12:13:25.033Z,9.15
2023-01-21T12:16:04.866Z,8.75
2023-01-21T12:19:04.547Z,9.27
2023-01-21T12:21:42.125Z,9.07
2023-01-21T12:24:45.609Z,8.80
2023-01-21T12:27:31.970Z,9.25
2023-01-21T12:30:02.315Z,9.13
2023-01-21T12:32:39.547Z,8.60
2023-01-21T12:35:50.060Z,8.52
2023-01-21T12:38:26.982Z,8.27
2023-01-21T12:41:27.582Z,8.75
2023-01-21T12:44:15.487Z,8.52
2023-01-21T12:46:48.376Z,9.00
2023-01-21T12:49:22.754Z,9.60
2023-01-21T12:51:55.705Z,11.50
2023-01-21T12:54:49.793Z,9.63
2023-01-21T12:57:40.439Z,8.68
2023-01-21T13:00:21.986Z,8.55
2023-01-21T13:02:57.755Z,8.60
2023-01-21T13:05:55.956Z,10.48
2023-01-21T13:08:38.824Z,9.73
2023-01-21T13:11:22.712Z,9.90
2023-01-21T13:14:08.688Z,8.38
2023-01-21T13:16:40.856Z,7.87
2023-01-21T13:19:13.834Z,7.93
2023-01-21T13:22:10.077Z,7.45
2023-01-21T13:25:03.076Z,7.75
2023-01-21T13:27:53.092Z,6.57
2023-01-21T13:30:37.576Z,9.10
2023-01-21T13:33:29.602Z,9.10
2023-01-21T13:36:24.669Z,9.05
2023-01-21T13:39:30.063Z,9.18
2023-01-21T13:42:14.176Z,7.75
2023-01-21T13:45:00.099Z,7.68
2023-01-21T13:47:59.880Z,7.80
2023-01-21T13:50:52.481Z,7.53
2023-01-21T13:53:42.151Z,7.15
2023-01-21T13:56:12.407Z,7.82
2023-01-21T13:58:53.078Z,6.87
2023-01-21T14:01:45.539Z,8.10
2023-01-21T14:04:27.212Z,7.03
2023-01-21T14:07:28.920Z,7.53
2023-01-21T14:10:16.204Z,8.18
2023-01-21T14:13:11.702Z,6.50
2023-01-21T14:16:08.567Z,7.45
2023-01-21T14:18:54.800Z,7.25
2023-01-21T14:21:50.423Z,7.10
2023-01-21T14:24:32.121Z,7.68
2023-01-21T14:27:26.952Z,6.82
2023-01-21T14:30:16.255Z,6.25
2023-01-21T14:32:54.398Z,7.90
2023-01-21T14:35:37.265Z,7.78
2023-01-21T14:38:35.496Z,8.45
2023-01-21T14:41:13.845Z,8.00
2023-01-21T14:43:45.493Z,8.43
2023-01-21T14:46:25.397Z,7.85
2023-01-21T14:49:13.043Z,7.90
2023-01-21T14:51:51.055Z,7.25
2023-01-21T14:54:28.225Z,6.78
2023-01-21T14:57:10.221Z,7.65
2023-01-21T14:59:47.273Z,6.50
2023-01-21T15:02:42.422Z,7.43
2023-01-21T15:05:19.622Z,8.45
2023-01-21T15:07:51.959Z,6.93
2023-01-21T15:10:22.611Z,7.50
2023-01-21T15:12:55.045Z,7.95
2023-01-21T15:15:40.925Z,8.40
2023-01-21T15:18:11.574Z,8.10
2023-01-21T15:20:59.723Z,8.55
2023-01-21T15:23:30.433Z,7.37
2023-01-21T15:26:10.402Z,7.70
2023-01-21T15:28:50.662Z,7.70
2023-01-21T15:31:21.568Z,6.87
2023-01-21T15:34:10.673Z,8.05
2023-01-21T15:36:48.211Z,6.60
2023-01-21T15:39:28.830Z,8.35
2023-01-21T15:42:26.815Z,7.78
2023-01-21T15:45:21.995Z,7.22
2023-01-21T15:47:58.716Z,7.00
2023-01-21T15:50:36.359Z,6.85
2023-01-21T15:53:31.205Z,7.80
2023-01-21T15:56:17.100Z,7.72
2023-01-21T15:58:47.707Z,7.20
2023-01-21T16:01:30.777Z,7.03
2023-01-21T16:04:13.931Z,7.45
2023-01-21T16:07:19.053Z,8.00
2023-01-21T16:09:56.069Z,7.50
2023-01-21T16:12:44.834Z,6.70
2023-01-21T16:15:24.641Z,7.35
2023-01-21T16:18:09.578Z,7.70
2023-01-21T16:20:37.913Z,7.47
2023-01-21T16:23:08.790Z,6.93
2023-01-21T16:25:47.474Z,6.90
2023-01-21T16:28:15.567Z,7.12
2023-01-21T16:30:54.386Z,7.60
2023-01-21T16:33:22.226Z,7.85
2023-01-21T16:35:59.433Z,6.18
2023-01-21T16:38:32.513Z,8.10
2023-01-21T16:41:24.945Z,6.60
2023-01-21T16:43:56.883Z,8.00
2023-01-21T16:46:33.882Z,6.57
2023-01-21T16:49:05.789Z,6.65
2023-01-21T16:51:36.699Z,6.10
2023-01-21T16:54:29.307Z,5.12
2023-01-21T16:56:58.843Z,5.80
2023-01-21T16:59:45.744Z,6.43
2023-01-21T17:02:24.474Z,9.93
2023-01-21T17:04:52.486Z,6.20
2023-01-21T17:07:28.901Z,13.25
2023-01-21T17:10:09.686Z,8.40
2023-01-21T17:12:38.002Z,5.72
2023-01-21T17:15:19.259Z,6.03
2023-01-21T17:17:47.443Z,6.00
2023-01-21T17:20:55.705Z,6.90
2023-01-21T17:23:37.035Z,5.40
2023-01-21T17:26:07.706Z,4.45
2023-01-21T17:28:42.005Z,5.43
2023-01-21T17:31:24.015Z,5.15
2023-01-21T17:34:18.357Z,5.28
2023-01-21T17:36:48.255Z,4.93
2023-01-21T17:39:18.186Z,4.53
2023-01-21T17:41:46.771Z,5.55
2023-01-21T17:44:23.173Z,3.97
2023-01-21T17:46:55.721Z,4.20
2023-01-21T17:49:25.726Z,5.57
2023-01-21T17:51:57.655Z,4.68
2023-01-21T17:54:28.072Z,4.55
2023-01-21T17:57:00.898Z,6.68
2023-01-21T17:59:43.251Z,6.97
2023-01-21T18:02:17.345Z,5.72
2023-01-21T18:04:45.147Z,6.30
2023-01-21T18:07:23.915Z,6.62
2023-01-21T18:09:52.856Z,5.78
2023-01-21T18:12:21.103Z,5.90
2023-01-21T18:14:49.176Z,6.30
2023-01-21T18:17:20.147Z,6.07
2023-01-21T18:19:48.174Z,5.97
2023-01-21T18:22:24.230Z,6.60
2023-01-21T18:24:52.105Z,6.07
2023-01-21T18:27:21.727Z,5.50
2023-01-21T18:29:49.599Z,6.20
2023-01-21T18:32:18.304Z,5.18
2023-01-21T18:34:47.940Z,5.65
2023-01-21T18:37:18.409Z,5.80
2023-01-21T18:39:46.778Z,4.57
2023-01-21T18:42:16.474Z,5.90
2023-01-21T18:44:44.293Z,5.95
2023-01-21T18:47:16.671Z,5.53
2023-01-21T18:49:45.426Z,5.37
2023-01-21T18:52:18.594Z,5.47
2023-01-21T18:54:46.818Z,5.93
2023-01-21T18:57:21.133Z,4.65
2023-01-21T18:59:49.365Z,4.87
2023-01-21T19:02:20.226Z,5.70
2023-01-21T19:04:48.671Z,5.62
2023-01-21T19:07:17.331Z,5.78
2023-01-21T19:09:48.003Z,5.50
2023-01-21T19:12:18.073Z,5.03
2023-01-21T19:14:46.400Z,4.40
2023-01-21T19:17:16.836Z,5.18
2023-01-21T19:19:44.639Z,5.30
2023-01-21T19:22:16.484Z,3.97
2023-01-21T19:24:44.305Z,5.03
2023-01-21T19:27:29.567Z,5.18
2023-01-21T19:29:57.499Z,4.32
2023-01-21T19:32:25.231Z,4.43
2023-01-21T19:34:53.143Z,4.40
2023-01-21T19:37:24.375Z,4.95
2023-01-21T19:39:52.069Z,4.95
2023-01-21T19:42:19.850Z,5.20
2023-01-21T19:44:47.565Z,5.68
2023-01-21T19:47:21.961Z,4.68
2023-01-21T19:49:49.683Z,4.70
2023-01-21T19:52:17.368Z,5.57
2023-01-21T19:54:45.107Z,5.07
2023-01-21T19:57:19.175Z,6.53
2023-01-21T19:59:49.099Z,5.60
2023-01-21T20:02:16.872Z,5.78
2023-01-21T20:04:44.645Z,4.93
2023-01-21T20:07:16.999Z,4.68
2023-01-21T20:09:44.753Z,4.87
2023-01-21T20:12:14.089Z,5.10
2023-01-21T20:14:41.956Z,5.15
2023-01-21T20:17:14.486Z,6.15
2023-01-21T20:19:42.437Z,5.45
2023-01-21T20:22:11.639Z,4.93
2023-01-21T20:24:39.382Z,5.55
2023-01-21T20:27:09.639Z,5.40
2023-01-21T20:29:44.390Z,5.35
2023-01-21T20:32:12.436Z,4.72
2023-01-21T20:34:40.128Z,5.10
2023-01-21T20:37:07.858Z,4.90
2023-01-21T20:39:35.571Z,5.30
2023-01-21T20:42:03.262Z,4.82
2023-01-21T20:44:31.147Z,5.55
2023-01-21T20:47:01.820Z,4.40
2023-01-21T20:49:29.551Z,4.68
2023-01-21T20:51:57.492Z,4.70
2023-01-21T20:54:26.010Z,4.45
2023-01-21T20:56:53.726Z,4.22
2023-01-21T20:59:22.928Z,5.10
2023-01-21T21:01:52.722Z,4.50
2023-01-21T21:04:20.567Z,5.37
2023-01-21T21:06:48.375Z,4.32
2023-01-21T21:09:16.162Z,4.05
2023-01-21T21:11:44.240Z,4.30
2023-01-21T21:14:14.159Z,4.05
2023-01-21T21:16:41.941Z,4.20
2023-01-21T21:19:12.880Z,3.95
2023-01-21T21:21:40.724Z,4.57
2023-01-21T21:24:08.790Z,4.10
2023-01-21T21:26:38.550Z,4.62
2023-01-21T21:29:14.275Z,4.25
2023-01-21T21:31:42.149Z,4.10
2023-01-21T21:34:11.451Z,3.90
2023-01-21T21:36:42.989Z,4.97
2023-01-21T21:39:10.739Z,3.72
2023-01-21T21:41:57.440Z,4.55
2023-01-21T21:44:25.311Z,3.92
2023-01-21T21:47:11.564Z,4.60
2023-01-21T21:49:39.261Z,3.55
2023-01-21T21:52:07.092Z,4.15
2023-01-21T21:54:35.411Z,4.30
2023-01-21T21:57:03.086Z,3.37
2023-01-21T21:59:30.703Z,3.75
2023-01-21T22:02:01.794Z,3.87
2023-01-21T22:04:29.633Z,4.28
2023-01-21T22:06:57.403Z,3.35
2023-01-21T22:09:25.649Z,3.92
2023-01-21T22:11:53.625Z,3.40
2023-01-21T22:14:21.351Z,4.05
2023-01-21T22:16:51.075Z,3.78
2023-01-21T22:19:18.902Z,3.97
2023-01-21T22:21:46.865Z,4.05
2023-01-21T22:24:14.553Z,3.40
2023-01-21T22:26:42.741Z,3.62
2023-01-21T22:29:10.700Z,3.50
2023-01-21T22:31:38.785Z,4.50
2023-01-21T22:34:06.753Z,4.25
2023-01-21T22:36:34.489Z,3.67
2023-01-21T22:39:02.630Z,3.55
2023-01-21T22:41:30.490Z,4.70
2023-01-21T22:43:58.380Z,4.05
2023-01-21T22:46:30.993Z,3.80
2023-01-21T22:48:59.470Z,4.00
2023-01-21T22:51:27.991Z,4.78
2023-01-21T22:53:55.927Z,4.43
2023-01-21T22:56:44.931Z,3.70
2023-01-21T22:59:12.980Z,4.22
2023-01-21T23:01:40.971Z,3.45
2023-01-21T23:04:09.917Z,3.83
2023-01-21T23:06:38.231Z,4.62
2023-01-21T23:09:09.185Z,4.65
2023-01-21T23:11:39.177Z,4.62
2023-01-21T23:14:09.573Z,4.35
2023-01-21T23:16:37.452Z,3.30
2023-01-21T23:19:05.232Z,4.20
2023-01-21T23:21:33.097Z,4.50
2023-01-21T23:24:00.895Z,4.47
2023-01-21T23:26:28.750Z,4.22
2023-01-21T23:28:57.873Z,4.35
2023-01-21T23:31:26.488Z,4.25
2023-01-21T23:33:56.850Z,4.03
2023-01-21T23:36:24.879Z,3.67
2023-01-21T23:38:52.683Z,4.80
2023-01-21T23:41:22.224Z,4.05
2023-01-21T23:43:49.899Z,4.35
2023-01-21T23:46:20.674Z,5.00
2023-01-21T23:48:48.912Z,4.40
2023-01-21T23:51:18.266Z,4.80
2023-01-21T23:53:48.747Z,5.37
2023-01-21T23:56:18.417Z,3.67
2023-01-21T23:58:46.252Z,5.22
